This is the latest recevied weather packets stored in our database for station/object 9M4GHZ-13. If no packets are shown the sender has not sent any weather packets the latest 10 day(s).
| Time | Temp. | Humidity | Pressure | Rain* | Wind** | Luminosity | Snow |
|---|---|---|---|---|---|---|---|
| 1788147003 | 90° F | 61% | 759.1 mmHg | - | - | - | - |
| 1788146404 | 89° F | 65% | 759.2 mmHg | - | - | - | - |
| 1788145805 | 88° F | 68% | 759.3 mmHg | - | - | - | - |
| 1788145204 | 88° F | 71% | 759.4 mmHg | - | - | - | - |
| 1788144604 | 87° F | 72% | 759.3 mmHg | - | - | - | - |
| 1788144005 | 86° F | 76% | 759.5 mmHg | - | - | - | - |
| 1788143403 | 86° F | 76% | 759.5 mmHg | - | - | - | - |
| 1788142804 | 85° F | 76% | 759.4 mmHg | - | - | - | - |
| 1788142204 | 85° F | 76% | 759.5 mmHg | - | - | - | - |
| 1788141605 | 84° F | 77% | 759.6 mmHg | - | - | - | - |
| 1788141004 | 84° F | 78% | 759.7 mmHg | - | - | - | - |
| 1788140403 | 83° F | 80% | 759.7 mmHg | - | - | - | - |
| 1788139804 | 83° F | 81% | 759.7 mmHg | - | - | - | - |
| 1788139204 | 83° F | 81% | 759.7 mmHg | - | - | - | - |
| 1788138604 | 82° F | 81% | 759.5 mmHg | - | - | - | - |
| 1788138004 | 82° F | 86% | 759.6 mmHg | - | - | - | - |
| 1788137404 | 81° F | 88% | 759.4 mmHg | - | - | - | - |
| 1788136805 | 81° F | 89% | 759.4 mmHg | - | - | - | - |
| 1788136204 | 81° F | 90% | 759.3 mmHg | - | - | - | - |
| 1788135604 | 80° F | 91% | 759.3 mmHg | - | - | - | - |
| 1788135005 | 80° F | 91% | 759.2 mmHg | - | - | - | - |
| 1788134404 | 80° F | 92% | 759.1 mmHg | - | - | - | - |
| 1788133804 | 79° F | 92% | 759.1 mmHg | - | - | - | - |
| 1788133204 | 79° F | 93% | 759.1 mmHg | - | - | - | - |
| 1788132604 | 79° F | 93% | 759.1 mmHg | - | - | - | - |
* Rain since midnight (hover to see other rain measurements)
** Current wind speed in m/s (hover to see current wind gust speed)